createdAt,value
2018-06-19T00:00:27.489Z,755.30
2018-06-19T00:01:27.535Z,753.30
2018-06-19T00:02:27.580Z,736.30
2018-06-19T00:03:27.863Z,732.70
2018-06-19T00:04:27.780Z,752.60
2018-06-19T00:05:27.712Z,724.80
2018-06-19T00:06:27.768Z,737.70
2018-06-19T00:07:27.809Z,776.10
2018-06-19T00:08:27.837Z,750.50
2018-06-19T00:09:28.107Z,733.80
2018-06-19T00:10:27.945Z,741.30
2018-06-19T00:11:27.992Z,736.40
2018-06-19T00:12:28.041Z,760.80
2018-06-19T00:13:28.063Z,751.40
2018-06-19T00:14:28.081Z,759.50
2018-06-19T00:15:28.260Z,711.80
2018-06-19T00:16:28.185Z,755.60
2018-06-19T00:17:28.242Z,754.30
2018-06-19T00:18:28.271Z,763.40
2018-06-19T00:19:28.308Z,765.10
2018-06-19T00:20:29.946Z,759.60
2018-06-19T00:21:28.402Z,714.90
2018-06-19T00:22:28.434Z,746.90
2018-06-19T00:23:28.498Z,762.70
2018-06-19T00:24:28.523Z,731.60
2018-06-19T00:25:28.569Z,743.70
2018-06-19T00:26:28.727Z,770.20
2018-06-19T00:27:28.661Z,756.80
2018-06-19T00:28:28.721Z,740.80
2018-06-19T00:29:28.734Z,741.90
2018-06-19T00:30:28.789Z,744.60
2018-06-19T00:31:28.830Z,741.30
2018-06-19T00:32:29.001Z,734.00
2018-06-19T00:33:28.940Z,749.90
2018-06-19T00:34:28.980Z,743.90
2018-06-19T00:35:29.009Z,750.30
2018-06-19T00:36:29.045Z,755.40
2018-06-19T00:37:29.101Z,737.70
2018-06-19T00:38:29.128Z,748.90
2018-06-19T00:39:29.171Z,743.10
2018-06-19T00:40:29.232Z,759.50
2018-06-19T00:41:29.273Z,747.40
2018-06-19T00:42:29.313Z,760.70
2018-06-19T00:43:29.561Z,737.70
2018-06-19T00:44:29.396Z,765.40
2018-06-19T00:45:29.449Z,745.80
2018-06-19T00:46:29.494Z,767.80
2018-06-19T00:47:29.542Z,758.50
2018-06-19T00:48:29.701Z,758.40
2018-06-19T00:49:29.641Z,749.80
2018-06-19T00:50:29.680Z,713.40
2018-06-19T00:51:29.710Z,755.60
2018-06-19T00:52:29.743Z,783.50
2018-06-19T00:53:29.805Z,743.50
2018-06-19T00:54:29.836Z,742.80
2018-06-19T00:55:29.871Z,756.10
2018-06-19T00:56:29.954Z,738.30
2018-06-19T00:57:29.981Z,760.20
2018-06-19T00:58:30.129Z,722.50
2018-06-19T00:59:30.047Z,741.10
2018-06-19T01:00:30.112Z,753.80
2018-06-19T01:01:30.133Z,730.80
2018-06-19T01:02:30.206Z,747.80
2018-06-19T01:03:30.239Z,751.70
2018-06-19T01:04:30.280Z,743.70
2018-06-19T01:05:30.433Z,765.00
2018-06-19T01:06:30.355Z,739.30
2018-06-19T01:07:30.397Z,751.70
2018-06-19T01:08:30.459Z,760.20
2018-06-19T01:09:30.480Z,745.30
2018-06-19T01:10:30.547Z,746.30
2018-06-19T01:11:30.695Z,740.30
2018-06-19T01:12:30.631Z,719.00
2018-06-19T01:13:30.665Z,726.60
2018-06-19T01:14:30.696Z,703.30
2018-06-19T01:15:30.753Z,740.90
2018-06-19T01:16:30.786Z,707.20
2018-06-19T01:17:30.943Z,706.50
2018-06-19T01:18:30.872Z,706.40
2018-06-19T01:19:30.914Z,725.30
2018-06-19T01:20:30.953Z,735.10
2018-06-19T01:21:31.018Z,721.90
2018-06-19T01:22:31.040Z,716.60
2018-06-19T01:23:31.184Z,718.40
2018-06-19T01:24:31.128Z,723.50
2018-06-19T01:25:31.201Z,726.30
2018-06-19T01:26:31.221Z,709.10
2018-06-19T01:27:31.255Z,739.00
2018-06-19T01:28:31.375Z,746.40
2018-06-19T01:29:31.370Z,738.80
2018-06-19T01:30:31.401Z,716.30
2018-06-19T01:31:31.461Z,751.60
2018-06-19T01:32:31.483Z,737.80
2018-06-19T01:33:31.645Z,737.00
2018-06-19T01:34:31.580Z,739.10
2018-06-19T01:35:31.612Z,741.90
2018-06-19T01:36:31.654Z,767.00
2018-06-19T01:37:31.705Z,739.20
2018-06-19T01:38:31.773Z,746.60
2018-06-19T01:39:31.794Z,762.30
2018-06-19T01:40:31.858Z,733.90
2018-06-19T01:41:31.888Z,760.90
2018-06-19T01:42:31.919Z,745.50
2018-06-19T01:43:31.954Z,740.10
2018-06-19T01:44:33.708Z,751.30
2018-06-19T01:45:32.040Z,751.00
2018-06-19T01:46:32.104Z,744.20
2018-06-19T01:47:32.161Z,739.30
2018-06-19T01:48:32.216Z,738.00
2018-06-19T01:49:32.218Z,735.00
2018-06-19T01:50:32.475Z,743.80
2018-06-19T01:51:32.444Z,765.90
2018-06-19T01:52:32.380Z,734.50
2018-06-19T01:53:32.414Z,717.90
2018-06-19T01:54:32.491Z,722.80
2018-06-19T01:55:32.503Z,716.50
2018-06-19T01:56:32.538Z,716.00
2018-06-19T01:57:32.787Z,737.10
2018-06-19T01:58:32.623Z,735.50
2018-06-19T01:59:32.681Z,718.30
2018-06-19T02:00:32.702Z,726.20
2018-06-19T02:01:32.771Z,718.10
2018-06-19T02:02:33.098Z,715.90
2018-06-19T02:03:32.949Z,686.80
2018-06-19T02:04:32.875Z,719.80
2018-06-19T02:05:32.923Z,724.60
2018-06-19T02:06:32.968Z,722.80
2018-06-19T02:07:33.016Z,735.10
2018-06-19T02:08:33.048Z,725.20
2018-06-19T02:09:33.099Z,746.80
2018-06-19T02:10:33.153Z,729.40
2018-06-19T02:11:33.186Z,711.90
2018-06-19T02:12:33.245Z,753.70
2018-06-19T02:13:33.364Z,748.80
2018-06-19T02:14:33.333Z,742.40
2018-06-19T02:15:33.372Z,736.50
2018-06-19T02:16:33.410Z,724.50
2018-06-19T02:17:33.455Z,750.50
2018-06-19T02:18:33.498Z,731.90
2018-06-19T02:19:33.551Z,744.80
2018-06-19T02:20:33.607Z,739.80
2018-06-19T02:21:33.653Z,738.80
2018-06-19T02:22:33.654Z,729.70
2018-06-19T02:23:33.760Z,739.70
2018-06-19T02:24:33.843Z,747.20
2018-06-19T02:25:33.803Z,710.70
2018-06-19T02:26:33.840Z,745.40
2018-06-19T02:27:33.889Z,735.40
2018-06-19T02:28:33.916Z,727.90
2018-06-19T02:29:33.969Z,716.60
2018-06-19T02:30:34.016Z,731.60
2018-06-19T02:31:34.055Z,716.60
2018-06-19T02:32:34.130Z,710.90
2018-06-19T02:33:34.156Z,732.80
2018-06-19T02:34:34.271Z,730.10
2018-06-19T02:35:34.239Z,731.20
2018-06-19T02:36:34.269Z,734.50
2018-06-19T02:37:34.322Z,732.60
2018-06-19T02:38:34.375Z,680.80
2018-06-19T02:39:34.412Z,712.20
2018-06-19T02:40:34.550Z,697.00
2018-06-19T02:41:34.502Z,736.00
2018-06-19T02:42:34.543Z,723.30
2018-06-19T02:43:34.577Z,714.50
2018-06-19T02:44:34.622Z,730.00
2018-06-19T02:45:34.666Z,717.80
2018-06-19T02:46:34.738Z,711.00
2018-06-19T02:47:34.762Z,698.20
2018-06-19T02:48:34.801Z,724.50
2018-06-19T02:49:34.872Z,702.90
2018-06-19T02:50:35.006Z,699.30
2018-06-19T02:51:34.919Z,727.60
2018-06-19T02:52:34.970Z,702.50
2018-06-19T02:53:35.012Z,735.10
2018-06-19T02:54:35.078Z,697.20
2018-06-19T02:55:35.079Z,689.70
2018-06-19T02:56:35.172Z,705.20
2018-06-19T02:57:35.197Z,707.40
2018-06-19T02:58:35.242Z,721.90
2018-06-19T02:59:35.276Z,737.70
2018-06-19T03:00:35.432Z,736.30
2018-06-19T03:01:35.361Z,708.90
2018-06-19T03:02:35.393Z,661.20
2018-06-19T03:03:35.445Z,669.00
2018-06-19T03:04:35.483Z,698.40
2018-06-19T03:05:35.560Z,704.50
2018-06-19T03:06:35.658Z,698.20
2018-06-19T03:07:35.640Z,700.10
2018-06-19T03:08:35.679Z,708.30
2018-06-19T03:09:35.710Z,709.80
2018-06-19T03:10:35.746Z,722.40
2018-06-19T03:11:35.789Z,703.20
2018-06-19T03:12:35.952Z,697.20
2018-06-19T03:13:35.908Z,688.00
2018-06-19T03:14:35.901Z,712.20
2018-06-19T03:15:35.955Z,744.30
2018-06-19T03:16:36.017Z,720.40
2018-06-19T03:17:36.048Z,709.20
2018-06-19T03:18:36.171Z,715.90
2018-06-19T03:19:36.135Z,688.70
2018-06-19T03:20:36.176Z,711.00
2018-06-19T03:21:36.241Z,717.10
2018-06-19T03:22:36.250Z,764.70
2018-06-19T03:23:36.503Z,724.20
2018-06-19T03:24:36.352Z,700.80
2018-06-19T03:25:36.387Z,707.00
2018-06-19T03:26:36.422Z,690.30
2018-06-19T03:27:36.510Z,750.80
2018-06-19T03:28:36.550Z,706.70
2018-06-19T03:29:36.669Z,733.30
2018-06-19T03:30:36.618Z,742.10
2018-06-19T03:31:36.649Z,740.60
2018-06-19T03:32:36.689Z,782.40
2018-06-19T03:33:36.738Z,805.10
2018-06-19T03:34:36.793Z,756.20
2018-06-19T03:35:36.829Z,761.30
2018-06-19T03:36:36.982Z,771.20
2018-06-19T03:37:36.915Z,790.60
2018-06-19T03:38:36.960Z,771.70
2018-06-19T03:39:36.989Z,775.20
2018-06-19T03:40:37.041Z,770.70
2018-06-19T03:41:37.186Z,782.10
2018-06-19T03:42:37.118Z,775.80
2018-06-19T03:43:37.153Z,810.40
2018-06-19T03:44:37.200Z,782.50
2018-06-19T03:45:37.235Z,799.40
2018-06-19T03:46:37.277Z,810.40
2018-06-19T03:47:37.537Z,804.50
2018-06-19T03:48:37.391Z,792.10
2018-06-19T03:49:37.430Z,806.00
2018-06-19T03:50:37.450Z,808.90
2018-06-19T03:51:37.541Z,781.80
2018-06-19T03:52:37.555Z,756.90
2018-06-19T03:53:37.702Z,736.90
2018-06-19T03:54:37.630Z,748.40
2018-06-19T03:55:37.682Z,731.60
2018-06-19T03:56:37.726Z,751.10
2018-06-19T03:57:37.755Z,758.10
2018-06-19T03:58:37.792Z,753.90
2018-06-19T03:59:37.856Z,734.30
2018-06-19T04:00:37.906Z,734.60
2018-06-19T04:01:37.926Z,705.30
2018-06-19T04:02:38.017Z,734.20
2018-06-19T04:03:38.222Z,740.50
2018-06-19T04:04:38.066Z,735.00
2018-06-19T04:05:38.123Z,722.20
2018-06-19T04:06:38.154Z,722.10
2018-06-19T04:07:38.200Z,719.30
2018-06-19T04:08:38.346Z,722.60
2018-06-19T04:09:38.279Z,725.80
2018-06-19T04:10:38.323Z,715.60
2018-06-19T04:11:38.392Z,715.60
2018-06-19T04:12:38.411Z,713.40
2018-06-19T04:13:38.456Z,751.70
2018-06-19T04:14:38.582Z,739.70
2018-06-19T04:15:38.539Z,719.60
2018-06-19T04:16:38.606Z,698.40
2018-06-19T04:17:38.642Z,714.00
2018-06-19T04:18:38.658Z,701.60
2018-06-19T04:19:38.734Z,699.80
2018-06-19T04:20:38.940Z,722.90
2018-06-19T04:21:38.809Z,693.10
2018-06-19T04:22:38.862Z,800.00
2018-06-19T04:23:38.897Z,725.20
2018-06-19T04:24:38.933Z,715.80
2018-06-19T04:25:39.075Z,717.90
2018-06-19T04:26:39.008Z,702.40
2018-06-19T04:27:39.076Z,736.00
2018-06-19T04:28:39.116Z,773.40
2018-06-19T04:29:39.127Z,768.90
2018-06-19T04:30:39.167Z,724.60
2018-06-19T04:31:39.436Z,884.30
2018-06-19T04:32:39.269Z,689.60
2018-06-19T04:33:39.318Z,693.60
2018-06-19T04:34:39.388Z,716.70
2018-06-19T04:35:39.407Z,690.40
2018-06-19T04:36:39.437Z,742.30
2018-06-19T04:37:39.583Z,686.00
2018-06-19T04:38:39.517Z,705.60
2018-06-19T04:39:39.558Z,726.40
2018-06-19T04:40:39.621Z,711.00
2018-06-19T04:41:39.662Z,730.50
2018-06-19T04:42:39.703Z,708.70
2018-06-19T04:43:39.727Z,719.10
2018-06-19T04:44:39.873Z,699.70
2018-06-19T04:45:39.809Z,695.80
2018-06-19T04:46:39.856Z,737.20
2018-06-19T04:47:39.919Z,719.10
2018-06-19T04:48:39.960Z,703.80
2018-06-19T04:49:40.013Z,715.90
2018-06-19T04:50:40.243Z,695.90
2018-06-19T04:51:40.088Z,721.80
2018-06-19T04:52:40.114Z,696.90
2018-06-19T04:53:40.171Z,708.40
2018-06-19T04:54:40.209Z,719.40
2018-06-19T04:55:40.375Z,703.50
2018-06-19T04:56:40.290Z,703.70
2018-06-19T04:57:40.330Z,714.00
2018-06-19T04:58:40.388Z,737.10
2018-06-19T04:59:40.431Z,733.60
2018-06-19T05:00:40.463Z,755.90
2018-06-19T05:01:40.505Z,765.70
2018-06-19T05:02:40.556Z,764.40
2018-06-19T05:03:40.589Z,765.10
2018-06-19T05:04:40.629Z,786.10
2018-06-19T05:05:40.885Z,791.80
2018-06-19T05:06:40.811Z,776.20
2018-06-19T05:07:40.776Z,778.80
2018-06-19T05:08:40.800Z,771.20
2018-06-19T05:09:40.858Z,764.90
2018-06-19T05:10:40.902Z,757.20
2018-06-19T05:11:40.930Z,766.40
2018-06-19T05:12:41.188Z,788.80
2018-06-19T05:13:41.018Z,739.10
2018-06-19T05:14:41.055Z,757.70
2018-06-19T05:15:41.113Z,771.30
2018-06-19T05:16:41.159Z,773.10
2018-06-19T05:17:41.300Z,757.10
2018-06-19T05:18:41.228Z,787.20
2018-06-19T05:19:41.297Z,786.60
2018-06-19T05:20:41.312Z,785.60
2018-06-19T05:21:41.358Z,778.80
2018-06-19T05:22:41.404Z,785.60
2018-06-19T05:23:41.674Z,805.40
2018-06-19T05:24:41.486Z,799.90
2018-06-19T05:25:41.552Z,794.00
2018-06-19T05:26:41.586Z,771.70
2018-06-19T05:27:41.619Z,780.50
2018-06-19T05:28:41.685Z,790.20
2018-06-19T05:29:41.870Z,799.80
2018-06-19T05:30:41.762Z,790.90
2018-06-19T05:31:41.800Z,824.60
2018-06-19T05:32:41.827Z,783.30
2018-06-19T05:33:41.870Z,805.30
2018-06-19T05:34:41.949Z,793.10
2018-06-19T05:35:42.074Z,773.30
2018-06-19T05:36:42.031Z,754.00
2018-06-19T05:37:42.081Z,736.30
2018-06-19T05:38:42.094Z,752.20
2018-06-19T05:39:42.174Z,734.00
2018-06-19T05:40:42.171Z,780.50
2018-06-19T05:41:42.442Z,764.10
2018-06-19T05:42:42.264Z,766.80
2018-06-19T05:43:42.333Z,739.90
2018-06-19T05:44:42.341Z,751.70
2018-06-19T05:45:42.409Z,738.10
2018-06-19T05:46:42.554Z,754.60
2018-06-19T05:47:42.489Z,733.30
2018-06-19T05:48:42.533Z,756.60
2018-06-19T05:49:42.563Z,761.90
2018-06-19T05:50:42.601Z,762.10
2018-06-19T05:51:42.657Z,773.80
2018-06-19T05:52:42.718Z,748.50
2018-06-19T05:53:42.728Z,743.20
2018-06-19T05:54:42.776Z,770.70
2018-06-19T05:55:42.829Z,810.20
2018-06-19T05:56:43.112Z,749.10
2018-06-19T05:57:43.018Z,775.40
2018-06-19T05:58:42.961Z,777.50
2018-06-19T05:59:42.987Z,780.00
2018-06-19T06:00:43.048Z,753.60
2018-06-19T06:01:43.076Z,782.30
2018-06-19T06:02:43.125Z,771.90
2018-06-19T06:03:43.173Z,771.60
2018-06-19T06:04:43.229Z,766.60
2018-06-19T06:05:43.324Z,757.20
2018-06-19T06:06:43.304Z,741.30
2018-06-19T06:07:43.543Z,762.60
2018-06-19T06:08:43.378Z,751.40
2018-06-19T06:09:43.415Z,772.20
2018-06-19T06:10:43.476Z,746.80
2018-06-19T06:11:43.509Z,740.10
2018-06-19T06:12:43.641Z,739.30
2018-06-19T06:13:43.594Z,744.90
2018-06-19T06:14:43.648Z,740.20
2018-06-19T06:15:43.677Z,748.10
2018-06-19T06:16:43.794Z,770.80
2018-06-19T06:17:43.756Z,752.80
2018-06-19T06:18:44.003Z,699.90
2018-06-19T06:19:43.841Z,735.70
2018-06-19T06:20:43.919Z,727.50
2018-06-19T06:21:43.946Z,726.10
2018-06-19T06:22:43.970Z,726.70
2018-06-19T06:23:44.028Z,727.90
2018-06-19T06:24:44.159Z,705.80
2018-06-19T06:25:44.115Z,764.90
2018-06-19T06:26:44.148Z,746.90
2018-06-19T06:27:44.202Z,747.10
2018-06-19T06:28:44.247Z,729.40
2018-06-19T06:29:44.273Z,782.60
2018-06-19T06:30:44.416Z,761.20
2018-06-19T06:31:44.355Z,770.10
2018-06-19T06:32:44.416Z,746.70
2018-06-19T06:33:44.441Z,769.50
2018-06-19T06:34:44.501Z,751.20
2018-06-19T06:35:44.737Z,743.30
2018-06-19T06:36:44.561Z,724.60
2018-06-19T06:37:44.618Z,767.60
2018-06-19T06:38:44.659Z,767.80
2018-06-19T06:39:44.700Z,763.80
2018-06-19T06:40:44.746Z,781.20
2018-06-19T06:41:44.894Z,734.00
2018-06-19T06:42:44.824Z,742.80
2018-06-19T06:43:44.886Z,703.70
2018-06-19T06:44:44.947Z,723.80
2018-06-19T06:45:44.966Z,727.90
2018-06-19T06:46:45.028Z,746.80
2018-06-19T06:47:45.138Z,758.10
2018-06-19T06:48:45.081Z,717.70
2018-06-19T06:49:45.138Z,729.20
2018-06-19T06:50:45.204Z,748.90
2018-06-19T06:51:45.207Z,757.10
2018-06-19T06:52:45.268Z,727.30
2018-06-19T06:53:45.414Z,716.70
2018-06-19T06:54:45.339Z,711.00
2018-06-19T06:55:45.393Z,731.60
2018-06-19T06:56:45.435Z,712.20
2018-06-19T06:57:45.497Z,702.30
2018-06-19T06:58:45.706Z,692.40
2018-06-19T06:59:45.560Z,689.50
2018-06-19T07:00:45.594Z,693.30
2018-06-19T07:01:45.641Z,659.90
2018-06-19T07:02:45.682Z,669.80
2018-06-19T07:03:45.733Z,695.10
2018-06-19T07:04:45.879Z,672.50
2018-06-19T07:05:45.824Z,684.40
2018-06-19T07:06:45.860Z,667.40
2018-06-19T07:07:45.895Z,644.20
2018-06-19T07:08:45.952Z,669.40
2018-06-19T07:09:46.196Z,664.00
2018-06-19T07:10:46.018Z,656.90
2018-06-19T07:11:46.077Z,660.60
2018-06-19T07:12:46.101Z,650.50
2018-06-19T07:13:46.148Z,670.10
2018-06-19T07:14:46.201Z,717.10
2018-06-19T07:15:46.357Z,686.10
2018-06-19T07:16:46.273Z,656.40
2018-06-19T07:17:46.328Z,738.20
2018-06-19T07:18:46.358Z,635.20
2018-06-19T07:19:46.625Z,660.20
2018-06-19T07:20:46.446Z,629.70
2018-06-19T07:21:46.483Z,671.50
2018-06-19T07:22:46.534Z,651.80
2018-06-19T07:23:46.562Z,713.60
2018-06-19T07:24:46.611Z,668.40
2018-06-19T07:25:46.819Z,666.10
2018-06-19T07:26:46.692Z,762.90
2018-06-19T07:27:46.752Z,737.40
2018-06-19T07:29:46.833Z,685.70
2018-06-19T07:30:46.869Z,740.10
2018-06-19T07:31:47.130Z,668.60
2018-06-19T07:32:46.943Z,629.50
2018-06-19T07:33:47.041Z,635.00
2018-06-19T07:34:47.027Z,644.20
2018-06-19T07:35:47.080Z,700.40
2018-06-19T07:36:47.242Z,624.60
2018-06-19T07:37:47.254Z,666.90
2018-06-19T07:38:47.204Z,697.30
2018-06-19T07:39:47.249Z,673.70
2018-06-19T07:40:47.297Z,667.10
2018-06-19T07:41:47.336Z,744.10
2018-06-19T07:42:47.620Z,611.90
2018-06-19T07:43:47.459Z,627.00
2018-06-19T07:44:47.514Z,616.60
2018-06-19T07:45:47.512Z,615.70
2018-06-19T07:46:47.549Z,602.90
2018-06-19T07:47:47.586Z,637.80
2018-06-19T07:48:47.622Z,639.50
2018-06-19T07:49:47.668Z,649.90
2018-06-19T07:50:47.705Z,656.10
2018-06-19T07:51:47.750Z,617.90
2018-06-19T07:52:48.051Z,651.90
2018-06-19T07:53:47.855Z,640.30
2018-06-19T07:54:47.903Z,683.90
2018-06-19T07:55:47.929Z,652.30
2018-06-19T07:56:47.973Z,686.70
2018-06-19T07:57:48.012Z,660.10
2018-06-19T07:58:48.047Z,616.10
2018-06-19T07:59:48.094Z,660.60
2018-06-19T08:00:48.149Z,665.70
2018-06-19T08:01:48.200Z,664.40
2018-06-19T08:02:48.322Z,648.30
2018-06-19T08:03:48.280Z,658.50
2018-06-19T08:04:48.317Z,620.20
2018-06-19T08:05:48.346Z,724.30
2018-06-19T08:06:48.380Z,639.80
2018-06-19T08:07:48.634Z,675.60
2018-06-19T08:08:48.491Z,656.70
2018-06-19T08:09:48.514Z,632.30
2018-06-19T08:10:48.576Z,640.90
2018-06-19T08:11:48.621Z,661.70
2018-06-19T08:12:48.643Z,649.00
2018-06-19T08:13:48.685Z,681.70
2018-06-19T08:14:48.733Z,635.60
2018-06-19T08:15:48.783Z,631.50
2018-06-19T08:16:48.817Z,658.40
2018-06-19T08:17:48.849Z,625.60
2018-06-19T08:18:49.149Z,657.60
2018-06-19T08:19:48.935Z,676.80
2018-06-19T08:20:48.991Z,665.70
2018-06-19T08:21:49.026Z,629.70
2018-06-19T08:22:49.110Z,637.40
2018-06-19T08:23:49.211Z,644.90
2018-06-19T08:24:49.157Z,627.70
2018-06-19T08:25:49.196Z,633.30
2018-06-19T08:26:49.246Z,612.80
2018-06-19T08:27:49.280Z,630.80
2018-06-19T08:28:49.320Z,654.00
2018-06-19T08:29:49.570Z,627.90
2018-06-19T08:30:49.413Z,660.30
2018-06-19T08:31:49.465Z,635.10
2018-06-19T08:32:49.493Z,633.30
2018-06-19T08:33:49.551Z,634.40
2018-06-19T08:34:49.575Z,667.70
2018-06-19T08:35:49.623Z,668.00
2018-06-19T08:36:49.774Z,642.30
2018-06-19T08:37:49.719Z,671.90
2018-06-19T08:38:49.765Z,643.00
2018-06-19T08:39:49.802Z,637.80
2018-06-19T08:40:49.851Z,647.50
2018-06-19T08:41:50.085Z,686.30
2018-06-19T08:42:49.934Z,659.70
2018-06-19T08:43:49.973Z,663.70
2018-06-19T08:44:50.001Z,631.10
2018-06-19T08:45:50.059Z,730.40
2018-06-19T08:46:50.084Z,646.90
2018-06-19T08:47:50.232Z,634.60
2018-06-19T08:48:50.189Z,642.00
2018-06-19T08:49:50.232Z,646.30
2018-06-19T08:50:50.276Z,649.10
2018-06-19T08:51:50.312Z,629.70
2018-06-19T08:52:50.355Z,648.20
2018-06-19T08:53:50.396Z,628.00
2018-06-19T08:54:50.436Z,639.50
2018-06-19T08:55:50.480Z,629.80
2018-06-19T08:56:50.512Z,610.00
2018-06-19T08:57:50.756Z,692.40
2018-06-19T08:58:50.607Z,622.20
2018-06-19T08:59:50.645Z,604.30
2018-06-19T09:00:50.680Z,706.20
2018-06-19T09:01:50.723Z,634.80
2018-06-19T09:02:50.876Z,727.30
2018-06-19T09:03:50.822Z,717.90
2018-06-19T09:04:50.859Z,658.40
2018-06-19T09:05:50.905Z,694.00
2018-06-19T09:06:50.934Z,608.60
2018-06-19T09:07:50.973Z,633.70
2018-06-19T09:08:51.219Z,625.20
2018-06-19T09:09:51.059Z,815.70
2018-06-19T09:10:51.110Z,691.80
2018-06-19T09:11:51.137Z,698.30
2018-06-19T09:12:51.195Z,652.00
2018-06-19T09:13:51.228Z,659.60
2018-06-19T09:14:51.263Z,745.80
2018-06-19T09:15:51.421Z,666.30
2018-06-19T09:16:51.361Z,694.10
2018-06-19T09:17:51.386Z,671.10
2018-06-19T09:18:51.431Z,701.60
2018-06-19T09:19:51.470Z,716.70
2018-06-19T09:20:51.720Z,734.30
2018-06-19T09:21:51.563Z,745.80
2018-06-19T09:22:51.595Z,698.50
2018-06-19T09:23:51.656Z,689.30
2018-06-19T09:24:51.697Z,687.70
2018-06-19T09:25:51.754Z,726.10
2018-06-19T09:26:51.880Z,718.90
2018-06-19T09:27:51.807Z,713.40
2018-06-19T09:28:51.853Z,716.30
2018-06-19T09:29:51.887Z,736.60
2018-06-19T09:30:51.951Z,703.30
2018-06-19T09:31:51.974Z,725.90
2018-06-19T09:32:52.013Z,736.00
2018-06-19T09:33:52.072Z,710.10
2018-06-19T09:34:52.113Z,734.10
2018-06-19T09:35:52.155Z,739.40
2018-06-19T09:36:52.405Z,720.90
2018-06-19T09:37:52.344Z,743.00
2018-06-19T09:38:52.285Z,756.30
2018-06-19T09:39:52.346Z,751.90
2018-06-19T09:40:52.365Z,739.60
2018-06-19T09:41:52.401Z,737.00
2018-06-19T09:42:52.447Z,746.40
2018-06-19T09:43:52.685Z,728.60
2018-06-19T09:44:52.519Z,720.60
2018-06-19T09:45:52.561Z,727.90
2018-06-19T09:46:52.600Z,771.00
2018-06-19T09:47:52.644Z,758.20
2018-06-19T09:48:52.705Z,785.80
2018-06-19T09:49:52.922Z,782.60
2018-06-19T09:50:52.783Z,750.60
2018-06-19T09:51:52.827Z,765.10
2018-06-19T09:52:52.864Z,778.90
2018-06-19T09:53:52.918Z,765.90
2018-06-19T09:54:52.938Z,773.40
2018-06-19T09:55:52.996Z,765.10
2018-06-19T09:56:53.024Z,756.50
2018-06-19T09:57:53.081Z,776.50
2018-06-19T09:58:53.131Z,784.20
2018-06-19T09:59:53.246Z,806.40
2018-06-19T10:00:53.186Z,793.60
2018-06-19T10:01:53.245Z,759.60
2018-06-19T10:02:53.272Z,741.60
2018-06-19T10:03:53.340Z,712.30
2018-06-19T10:04:53.359Z,715.90
2018-06-19T10:05:53.599Z,661.20
2018-06-19T10:06:53.439Z,638.10
2018-06-19T10:07:53.501Z,614.50
2018-06-19T10:08:53.529Z,591.40
2018-06-19T10:09:53.591Z,573.50
2018-06-19T10:10:53.633Z,557.10
2018-06-19T10:11:53.728Z,563.30
2018-06-19T10:12:53.898Z,575.40
2018-06-19T10:13:53.751Z,545.10
2018-06-19T10:14:53.796Z,537.80
2018-06-19T10:15:53.836Z,553.00
2018-06-19T10:16:53.875Z,494.40
2018-06-19T10:17:54.006Z,485.40
2018-06-19T10:18:53.966Z,478.00
2018-06-19T10:19:54.025Z,505.30
2018-06-19T10:20:54.050Z,469.90
2018-06-19T10:21:54.074Z,473.30
2018-06-19T10:22:54.133Z,465.20
2018-06-19T10:23:54.174Z,457.10
2018-06-19T10:24:54.217Z,480.10
2018-06-19T10:25:54.266Z,484.80
2018-06-19T10:26:54.297Z,470.50
2018-06-19T10:27:54.443Z,463.60
2018-06-19T10:28:54.467Z,538.70
2018-06-19T10:29:54.435Z,497.90
2018-06-19T10:30:54.487Z,479.30
2018-06-19T10:31:54.504Z,609.60
2018-06-19T10:32:54.541Z,513.20
2018-06-19T10:33:54.601Z,500.00
2018-06-19T10:34:54.762Z,489.90
2018-06-19T10:35:54.689Z,515.30
2018-06-19T10:36:54.738Z,475.00
2018-06-19T10:37:54.777Z,551.70
2018-06-19T10:38:54.805Z,570.20
2018-06-19T10:39:55.044Z,538.30
2018-06-19T10:40:54.883Z,537.60
2018-06-19T10:41:54.952Z,566.00
2018-06-19T10:42:54.970Z,565.40
2018-06-19T10:43:55.051Z,579.00
2018-06-19T10:44:55.069Z,573.70
2018-06-19T10:45:55.261Z,588.20
2018-06-19T10:46:55.161Z,590.90
2018-06-19T10:47:55.192Z,601.90
2018-06-19T10:48:55.256Z,558.10
2018-06-19T10:49:55.281Z,573.90
2018-06-19T10:50:55.342Z,515.90
2018-06-19T10:51:55.384Z,532.60
2018-06-19T10:52:55.428Z,532.90
2018-06-19T10:53:55.466Z,575.50
2018-06-19T10:54:55.509Z,497.90
2018-06-19T10:55:55.550Z,493.70
2018-06-19T10:56:55.593Z,490.00
2018-06-19T10:57:55.663Z,502.00
2018-06-19T10:58:55.695Z,460.00
2018-06-19T10:59:55.739Z,494.60
2018-06-19T11:00:55.877Z,488.50
2018-06-19T11:01:55.838Z,481.50
2018-06-19T11:02:55.883Z,489.80
2018-06-19T11:03:55.908Z,479.50
2018-06-19T11:04:55.963Z,574.40
2018-06-19T11:05:56.014Z,532.20
2018-06-19T11:06:56.061Z,527.80
2018-06-19T11:07:56.309Z,553.90
2018-06-19T11:08:56.161Z,523.60
2018-06-19T11:09:56.196Z,536.00
2018-06-19T11:10:56.256Z,570.80
2018-06-19T11:11:56.274Z,617.70
2018-06-19T11:12:56.334Z,555.00
2018-06-19T11:13:56.616Z,568.50
2018-06-19T11:14:56.411Z,509.00
2018-06-19T11:15:56.478Z,473.40
2018-06-19T11:16:56.519Z,537.50
2018-06-19T11:17:56.560Z,480.50
2018-06-19T11:18:56.733Z,482.30
2018-06-19T11:19:56.808Z,519.30
2018-06-19T11:20:56.703Z,435.20
2018-06-19T11:21:56.768Z,410.40
2018-06-19T11:22:56.790Z,409.60
2018-06-19T11:23:56.852Z,358.60
2018-06-19T11:24:56.887Z,356.50
2018-06-19T11:25:57.024Z,319.00
2018-06-19T11:26:56.990Z,298.80
2018-06-19T11:27:57.035Z,291.40
2018-06-19T11:28:57.083Z,249.20
2018-06-19T11:29:57.151Z,216.70
2018-06-19T11:30:57.187Z,256.30
2018-06-19T11:31:57.230Z,139.30
2018-06-19T11:32:57.297Z,161.10
2018-06-19T11:33:57.315Z,192.10
2018-06-19T11:34:57.364Z,179.40
2018-06-19T11:35:57.441Z,239.80
2018-06-19T11:36:57.696Z,571.50
2018-06-19T11:37:57.535Z,129.30
2018-06-19T11:38:57.588Z,49.10
2018-06-19T11:39:57.624Z,41.40
2018-06-19T11:40:57.655Z,49.80
2018-06-19T11:41:57.709Z,40.80
2018-06-19T11:42:57.880Z,46.50
2018-06-19T11:43:57.821Z,50.20
2018-06-19T11:44:57.870Z,75.30
2018-06-19T11:45:57.919Z,70.40
2018-06-19T11:46:57.955Z,73.80
2018-06-19T11:47:58.189Z,89.90
2018-06-19T11:48:58.036Z,93.70
2018-06-19T11:49:58.096Z,95.40
2018-06-19T11:50:58.147Z,110.20
2018-06-19T11:51:58.205Z,96.20
2018-06-19T11:52:58.351Z,111.60
2018-06-19T11:53:58.529Z,99.20
2018-06-19T11:54:58.319Z,160.00
2018-06-19T11:55:58.365Z,241.40
2018-06-19T11:56:58.440Z,146.70
2018-06-19T11:57:58.468Z,149.70
2018-06-19T11:58:58.521Z,144.20
2018-06-19T11:59:58.579Z,142.50
2018-06-19T12:00:58.616Z,160.60
2018-06-19T12:01:58.674Z,195.40
2018-06-19T12:02:58.704Z,246.50
2018-06-19T12:03:58.871Z,206.30
2018-06-19T12:04:58.802Z,167.10
2018-06-19T12:05:58.843Z,188.20
2018-06-19T12:06:58.884Z,160.00
2018-06-19T12:07:58.930Z,217.90
2018-06-19T12:08:59.191Z,237.50
2018-06-19T12:09:59.137Z,206.50
2018-06-19T12:10:59.090Z,251.80
2018-06-19T12:11:59.120Z,236.80
2018-06-19T12:12:59.181Z,276.80
2018-06-19T12:13:59.218Z,245.30
2018-06-19T12:14:59.521Z,249.10
2018-06-19T12:15:59.513Z,275.30
2018-06-19T12:16:59.348Z,299.30
2018-06-19T12:17:59.410Z,302.80
2018-06-19T12:18:59.447Z,273.50
2018-06-19T12:19:59.493Z,387.60
2018-06-19T12:20:59.532Z,309.90
2018-06-19T12:21:59.786Z,257.60
2018-06-19T12:22:59.617Z,244.70
2018-06-19T12:23:59.689Z,313.50
2018-06-19T12:24:59.712Z,174.50
2018-06-19T12:25:59.780Z,264.80
2018-06-19T12:26:59.798Z,237.30
2018-06-19T12:27:59.862Z,177.40
2018-06-19T12:28:59.906Z,159.00
2018-06-19T12:29:59.938Z,128.60